sensor_id;sensor_type;location;lat;lon;timestamp;P1;P2;P0
75946;PMS5003;64628;50.104;14.614;2023-09-19T00:01:30;14;12;
75946;PMS5003;64628;50.104;14.614;2023-09-19T00:03:55;19;19;
75946;PMS5003;64628;50.104;14.614;2023-09-19T00:06:20;26;24;
75946;PMS5003;64628;50.104;14.614;2023-09-19T00:08:46;7;7;
75946;PMS5003;64628;50.104;14.614;2023-09-19T00:11:11;24;24;
75946;PMS5003;64628;50.104;14.614;2023-09-19T00:13:36;2;2;
75946;PMS5003;64628;50.104;14.614;2023-09-19T00:16:01;3;3;
75946;PMS5003;64628;50.104;14.614;2023-09-19T00:18:26;3;3;
75946;PMS5003;64628;50.104;14.614;2023-09-19T00:20:52;2;2;
75946;PMS5003;64628;50.104;14.614;2023-09-19T00:23:17;2;2;
75946;PMS5003;64628;50.104;14.614;2023-09-19T00:25:42;1;1;
75946;PMS5003;64628;50.104;14.614;2023-09-19T00:28:07;2;2;
75946;PMS5003;64628;50.104;14.614;2023-09-19T00:30:32;3;1;
75946;PMS5003;64628;50.104;14.614;2023-09-19T00:32:57;4;3;
75946;PMS5003;64628;50.104;14.614;2023-09-19T00:35:22;2;2;
75946;PMS5003;64628;50.104;14.614;2023-09-19T00:37:47;1;1;
75946;PMS5003;64628;50.104;14.614;2023-09-19T00:40:12;1;1;
75946;PMS5003;64628;50.104;14.614;2023-09-19T00:42:38;1;1;
75946;PMS5003;64628;50.104;14.614;2023-09-19T00:45:03;3;3;
75946;PMS5003;64628;50.104;14.614;2023-09-19T00:47:28;2;2;
75946;PMS5003;64628;50.104;14.614;2023-09-19T00:49:53;1;1;
75946;PMS5003;64628;50.104;14.614;2023-09-19T00:52:18;3;3;
75946;PMS5003;64628;50.104;14.614;2023-09-19T00:54:43;7;4;
75946;PMS5003;64628;50.104;14.614;2023-09-19T00:57:08;6;6;
75946;PMS5003;64628;50.104;14.614;2023-09-19T00:59:33;10;9;
75946;PMS5003;64628;50.104;14.614;2023-09-19T01:01:58;13;13;
75946;PMS5003;64628;50.104;14.614;2023-09-19T01:04:23;14;14;
75946;PMS5003;64628;50.104;14.614;2023-09-19T01:06:49;15;15;
75946;PMS5003;64628;50.104;14.614;2023-09-19T01:09:14;14;14;
75946;PMS5003;64628;50.104;14.614;2023-09-19T01:11:40;15;15;
75946;PMS5003;64628;50.104;14.614;2023-09-19T01:14:06;22;22;
75946;PMS5003;64628;50.104;14.614;2023-09-19T01:16:32;22;22;
75946;PMS5003;64628;50.104;14.614;2023-09-19T01:18:59;18;18;
75946;PMS5003;64628;50.104;14.614;2023-09-19T01:21:22;13;13;
75946;PMS5003;64628;50.104;14.614;2023-09-19T01:23:52;5;5;
75946;PMS5003;64628;50.104;14.614;2023-09-19T01:26:13;7;6;
75946;PMS5003;64628;50.104;14.614;2023-09-19T01:28:42;5;5;
75946;PMS5003;64628;50.104;14.614;2023-09-19T01:31:00;5;5;
75946;PMS5003;64628;50.104;14.614;2023-09-19T01:33:25;7;6;
75946;PMS5003;64628;50.104;14.614;2023-09-19T01:35:51;9;9;
75946;PMS5003;64628;50.104;14.614;2023-09-19T01:38:16;10;8;
75946;PMS5003;64628;50.104;14.614;2023-09-19T01:40:41;8;7;
75946;PMS5003;64628;50.104;14.614;2023-09-19T01:43:08;11;11;
75946;PMS5003;64628;50.104;14.614;2023-09-19T01:45:33;13;13;
75946;PMS5003;64628;50.104;14.614;2023-09-19T01:47:57;17;17;
75946;PMS5003;64628;50.104;14.614;2023-09-19T01:50:24;26;26;
75946;PMS5003;64628;50.104;14.614;2023-09-19T01:52:48;5;5;
75946;PMS5003;64628;50.104;14.614;2023-09-19T01:55:12;1;1;
75946;PMS5003;64628;50.104;14.614;2023-09-19T01:57:40;17;17;
75946;PMS5003;64628;50.104;14.614;2023-09-19T02:00:05;3;2;
75946;PMS5003;64628;50.104;14.614;2023-09-19T02:02:28;1;1;
75946;PMS5003;64628;50.104;14.614;2023-09-19T02:04:53;3;2;
75946;PMS5003;64628;50.104;14.614;2023-09-19T02:07:18;3;2;
75946;PMS5003;64628;50.104;14.614;2023-09-19T02:09:43;2;2;
75946;PMS5003;64628;50.104;14.614;2023-09-19T02:12:08;2;1;
75946;PMS5003;64628;50.104;14.614;2023-09-19T02:14:34;1;1;
75946;PMS5003;64628;50.104;14.614;2023-09-19T02:16:59;4;2;
75946;PMS5003;64628;50.104;14.614;2023-09-19T02:19:24;2;2;
75946;PMS5003;64628;50.104;14.614;2023-09-19T02:21:49;2;2;
75946;PMS5003;64628;50.104;14.614;2023-09-19T02:24:14;4;2;
75946;PMS5003;64628;50.104;14.614;2023-09-19T02:26:39;24;24;
75946;PMS5003;64628;50.104;14.614;2023-09-19T02:29:04;11;11;
75946;PMS5003;64628;50.104;14.614;2023-09-19T02:31:30;10;10;
75946;PMS5003;64628;50.104;14.614;2023-09-19T02:33:55;12;12;
75946;PMS5003;64628;50.104;14.614;2023-09-19T02:36:20;7;7;
75946;PMS5003;64628;50.104;14.614;2023-09-19T02:38:45;8;8;
75946;PMS5003;64628;50.104;14.614;2023-09-19T02:41:10;5;5;
75946;PMS5003;64628;50.104;14.614;2023-09-19T02:43:35;5;5;
75946;PMS5003;64628;50.104;14.614;2023-09-19T02:46:00;5;5;
75946;PMS5003;64628;50.104;14.614;2023-09-19T02:48:26;6;6;
75946;PMS5003;64628;50.104;14.614;2023-09-19T02:50:51;5;5;
75946;PMS5003;64628;50.104;14.614;2023-09-19T02:53:16;7;7;
75946;PMS5003;64628;50.104;14.614;2023-09-19T02:55:41;6;6;
75946;PMS5003;64628;50.104;14.614;2023-09-19T02:58:06;7;7;
75946;PMS5003;64628;50.104;14.614;2023-09-19T03:00:31;6;6;
75946;PMS5003;64628;50.104;14.614;2023-09-19T03:02:56;7;7;
75946;PMS5003;64628;50.104;14.614;2023-09-19T03:07:47;8;7;
75946;PMS5003;64628;50.104;14.614;2023-09-19T03:10:12;6;6;
75946;PMS5003;64628;50.104;14.614;2023-09-19T03:12:37;8;5;
75946;PMS5003;64628;50.104;14.614;2023-09-19T03:15:02;7;7;
75946;PMS5003;64628;50.104;14.614;2023-09-19T03:17:27;8;7;
75946;PMS5003;64628;50.104;14.614;2023-09-19T03:19:52;7;7;
75946;PMS5003;64628;50.104;14.614;2023-09-19T03:22:17;9;8;
75946;PMS5003;64628;50.104;14.614;2023-09-19T03:24:43;7;7;
75946;PMS5003;64628;50.104;14.614;2023-09-19T03:27:08;5;5;
75946;PMS5003;64628;50.104;14.614;2023-09-19T03:29:33;5;5;
75946;PMS5003;64628;50.104;14.614;2023-09-19T03:31:58;5;5;
75946;PMS5003;64628;50.104;14.614;2023-09-19T03:34:23;3;3;
75946;PMS5003;64628;50.104;14.614;2023-09-19T03:36:48;4;4;
75946;PMS5003;64628;50.104;14.614;2023-09-19T03:39:13;4;4;
75946;PMS5003;64628;50.104;14.614;2023-09-19T03:41:38;3;3;
75946;PMS5003;64628;50.104;14.614;2023-09-19T03:44:04;2;2;
75946;PMS5003;64628;50.104;14.614;2023-09-19T03:46:29;3;2;
75946;PMS5003;64628;50.104;14.614;2023-09-19T03:48:54;2;2;
75946;PMS5003;64628;50.104;14.614;2023-09-19T03:51:19;2;2;
75946;PMS5003;64628;50.104;14.614;2023-09-19T03:53:44;3;3;
75946;PMS5003;64628;50.104;14.614;2023-09-19T03:56:09;3;3;
75946;PMS5003;64628;50.104;14.614;2023-09-19T03:58:34;3;3;
75946;PMS5003;64628;50.104;14.614;2023-09-19T04:00:59;2;2;
75946;PMS5003;64628;50.104;14.614;2023-09-19T04:03:24;2;2;
75946;PMS5003;64628;50.104;14.614;2023-09-19T04:05:50;3;3;
75946;PMS5003;64628;50.104;14.614;2023-09-19T04:08:15;4;3;
75946;PMS5003;64628;50.104;14.614;2023-09-19T04:10:41;4;4;
75946;PMS5003;64628;50.104;14.614;2023-09-19T04:13:05;3;3;
75946;PMS5003;64628;50.104;14.614;2023-09-19T04:15:30;4;3;
75946;PMS5003;64628;50.104;14.614;2023-09-19T04:17:55;3;3;
75946;PMS5003;64628;50.104;14.614;2023-09-19T04:20:21;2;2;
75946;PMS5003;64628;50.104;14.614;2023-09-19T04:22:46;2;2;
75946;PMS5003;64628;50.104;14.614;2023-09-19T04:25:11;7;6;
75946;PMS5003;64628;50.104;14.614;2023-09-19T04:27:36;4;4;
75946;PMS5003;64628;50.104;14.614;2023-09-19T04:30:01;2;2;
75946;PMS5003;64628;50.104;14.614;2023-09-19T04:32:27;4;3;
75946;PMS5003;64628;50.104;14.614;2023-09-19T04:34:51;2;2;
75946;PMS5003;64628;50.104;14.614;2023-09-19T04:37:17;2;2;
75946;PMS5003;64628;50.104;14.614;2023-09-19T04:39:41;3;3;
75946;PMS5003;64628;50.104;14.614;2023-09-19T04:42:06;2;2;
75946;PMS5003;64628;50.104;14.614;2023-09-19T04:44:32;4;3;
75946;PMS5003;64628;50.104;14.614;2023-09-19T04:46:57;4;4;
75946;PMS5003;64628;50.104;14.614;2023-09-19T04:49:22;4;3;
75946;PMS5003;64628;50.104;14.614;2023-09-19T04:51:47;3;3;
75946;PMS5003;64628;50.104;14.614;2023-09-19T04:54:12;5;4;
75946;PMS5003;64628;50.104;14.614;2023-09-19T04:56:37;6;5;
75946;PMS5003;64628;50.104;14.614;2023-09-19T04:59:02;3;2;
75946;PMS5003;64628;50.104;14.614;2023-09-19T05:01:27;6;5;
75946;PMS5003;64628;50.104;14.614;2023-09-19T05:03:52;3;3;
75946;PMS5003;64628;50.104;14.614;2023-09-19T05:06:18;5;4;
75946;PMS5003;64628;50.104;14.614;2023-09-19T05:08:43;4;4;
75946;PMS5003;64628;50.104;14.614;2023-09-19T05:11:08;6;4;
75946;PMS5003;64628;50.104;14.614;2023-09-19T05:13:33;4;4;
75946;PMS5003;64628;50.104;14.614;2023-09-19T05:15:59;5;4;
75946;PMS5003;64628;50.104;14.614;2023-09-19T05:18:23;5;5;
75946;PMS5003;64628;50.104;14.614;2023-09-19T05:20:48;5;3;
75946;PMS5003;64628;50.104;14.614;2023-09-19T05:23:13;5;5;
75946;PMS5003;64628;50.104;14.614;2023-09-19T05:25:39;7;4;
75946;PMS5003;64628;50.104;14.614;2023-09-19T05:28:04;5;3;
75946;PMS5003;64628;50.104;14.614;2023-09-19T05:30:29;5;3;
75946;PMS5003;64628;50.104;14.614;2023-09-19T05:32:54;4;4;
75946;PMS5003;64628;50.104;14.614;2023-09-19T05:35:19;3;3;
75946;PMS5003;64628;50.104;14.614;2023-09-19T05:37:44;5;5;
75946;PMS5003;64628;50.104;14.614;2023-09-19T05:40:09;3;3;
75946;PMS5003;64628;50.104;14.614;2023-09-19T05:42:34;6;5;
75946;PMS5003;64628;50.104;14.614;2023-09-19T05:44:59;5;5;
75946;PMS5003;64628;50.104;14.614;2023-09-19T05:47:24;4;4;
75946;PMS5003;64628;50.104;14.614;2023-09-19T05:49:49;5;4;
75946;PMS5003;64628;50.104;14.614;2023-09-19T05:52:14;5;5;
75946;PMS5003;64628;50.104;14.614;2023-09-19T05:54:39;6;5;
75946;PMS5003;64628;50.104;14.614;2023-09-19T05:57:05;4;4;
75946;PMS5003;64628;50.104;14.614;2023-09-19T05:59:30;5;5;
75946;PMS5003;64628;50.104;14.614;2023-09-19T06:01:55;5;5;
75946;PMS5003;64628;50.104;14.614;2023-09-19T06:04:20;5;5;
75946;PMS5003;64628;50.104;14.614;2023-09-19T06:06:45;5;5;
75946;PMS5003;64628;50.104;14.614;2023-09-19T06:09:10;6;5;
75946;PMS5003;64628;50.104;14.614;2023-09-19T06:11:35;7;6;
75946;PMS5003;64628;50.104;14.614;2023-09-19T06:14:00;4;4;
75946;PMS5003;64628;50.104;14.614;2023-09-19T06:16:25;7;7;
75946;PMS5003;64628;50.104;14.614;2023-09-19T06:18:50;4;4;
75946;PMS5003;64628;50.104;14.614;2023-09-19T06:21:15;5;5;
75946;PMS5003;64628;50.104;14.614;2023-09-19T06:23:41;4;4;
75946;PMS5003;64628;50.104;14.614;2023-09-19T06:26:06;6;5;
75946;PMS5003;64628;50.104;14.614;2023-09-19T06:28:31;4;4;
75946;PMS5003;64628;50.104;14.614;2023-09-19T06:30:56;5;5;
75946;PMS5003;64628;50.104;14.614;2023-09-19T06:33:21;5;5;
75946;PMS5003;64628;50.104;14.614;2023-09-19T06:35:46;6;4;
75946;PMS5003;64628;50.104;14.614;2023-09-19T06:38:11;7;6;
75946;PMS5003;64628;50.104;14.614;2023-09-19T06:40:36;5;4;
75946;PMS5003;64628;50.104;14.614;2023-09-19T06:43:01;4;4;
75946;PMS5003;64628;50.104;14.614;2023-09-19T06:45:26;4;4;
75946;PMS5003;64628;50.104;14.614;2023-09-19T06:47:52;14;13;
75946;PMS5003;64628;50.104;14.614;2023-09-19T06:50:17;9;9;
75946;PMS5003;64628;50.104;14.614;2023-09-19T06:52:42;11;10;
75946;PMS5003;64628;50.104;14.614;2023-09-19T06:55:07;7;7;
75946;PMS5003;64628;50.104;14.614;2023-09-19T06:57:32;12;8;
75946;PMS5003;64628;50.104;14.614;2023-09-19T06:59:57;6;6;
75946;PMS5003;64628;50.104;14.614;2023-09-19T07:02:22;6;5;
75946;PMS5003;64628;50.104;14.614;2023-09-19T07:04:47;5;5;
75946;PMS5003;64628;50.104;14.614;2023-09-19T07:07:12;4;4;
75946;PMS5003;64628;50.104;14.614;2023-09-19T07:09:37;4;4;
75946;PMS5003;64628;50.104;14.614;2023-09-19T07:12:02;3;3;
75946;PMS5003;64628;50.104;14.614;2023-09-19T07:14:27;3;3;
75946;PMS5003;64628;50.104;14.614;2023-09-19T07:16:52;5;5;
75946;PMS5003;64628;50.104;14.614;2023-09-19T07:19:17;4;4;
75946;PMS5003;64628;50.104;14.614;2023-09-19T07:21:43;23;23;
75946;PMS5003;64628;50.104;14.614;2023-09-19T07:24:08;8;8;
75946;PMS5003;64628;50.104;14.614;2023-09-19T07:26:34;5;5;
75946;PMS5003;64628;50.104;14.614;2023-09-19T07:28:59;6;6;
75946;PMS5003;64628;50.104;14.614;2023-09-19T07:31:24;3;3;
75946;PMS5003;64628;50.104;14.614;2023-09-19T07:33:49;5;4;
75946;PMS5003;64628;50.104;14.614;2023-09-19T07:36:14;3;3;
75946;PMS5003;64628;50.104;14.614;2023-09-19T07:38:39;5;4;
75946;PMS5003;64628;50.104;14.614;2023-09-19T07:41:04;6;4;
75946;PMS5003;64628;50.104;14.614;2023-09-19T07:43:29;6;5;
75946;PMS5003;64628;50.104;14.614;2023-09-19T07:45:54;5;5;
75946;PMS5003;64628;50.104;14.614;2023-09-19T07:48:19;4;4;
75946;PMS5003;64628;50.104;14.614;2023-09-19T07:50:44;7;5;
75946;PMS5003;64628;50.104;14.614;2023-09-19T07:53:09;6;5;
75946;PMS5003;64628;50.104;14.614;2023-09-19T07:55:34;9;6;
75946;PMS5003;64628;50.104;14.614;2023-09-19T07:57:59;4;4;
75946;PMS5003;64628;50.104;14.614;2023-09-19T08:00:24;5;4;
75946;PMS5003;64628;50.104;14.614;2023-09-19T08:02:49;5;5;
75946;PMS5003;64628;50.104;14.614;2023-09-19T08:05:14;6;4;
75946;PMS5003;64628;50.104;14.614;2023-09-19T08:07:40;3;3;
75946;PMS5003;64628;50.104;14.614;2023-09-19T08:10:05;5;4;
75946;PMS5003;64628;50.104;14.614;2023-09-19T08:12:29;5;5;
75946;PMS5003;64628;50.104;14.614;2023-09-19T08:14:54;4;4;
75946;PMS5003;64628;50.104;14.614;2023-09-19T08:17:19;4;4;
75946;PMS5003;64628;50.104;14.614;2023-09-19T08:19:45;5;5;
75946;PMS5003;64628;50.104;14.614;2023-09-19T08:22:10;7;4;
75946;PMS5003;64628;50.104;14.614;2023-09-19T08:24:35;4;4;
75946;PMS5003;64628;50.104;14.614;2023-09-19T08:27:00;4;4;
75946;PMS5003;64628;50.104;14.614;2023-09-19T08:29:25;6;6;
75946;PMS5003;64628;50.104;14.614;2023-09-19T08:31:50;5;5;
75946;PMS5003;64628;50.104;14.614;2023-09-19T08:34:15;3;3;
75946;PMS5003;64628;50.104;14.614;2023-09-19T08:36:40;5;3;
75946;PMS5003;64628;50.104;14.614;2023-09-19T08:39:06;5;5;
75946;PMS5003;64628;50.104;14.614;2023-09-19T08:41:32;6;5;
75946;PMS5003;64628;50.104;14.614;2023-09-19T08:43:58;4;4;
75946;PMS5003;64628;50.104;14.614;2023-09-19T08:46:24;3;2;
75946;PMS5003;64628;50.104;14.614;2023-09-19T08:48:51;4;3;
75946;PMS5003;64628;50.104;14.614;2023-09-19T08:51:18;5;3;
75946;PMS5003;64628;50.104;14.614;2023-09-19T08:53:41;2;2;
75946;PMS5003;64628;50.104;14.614;2023-09-19T08:56:10;3;2;
75946;PMS5003;64628;50.104;14.614;2023-09-19T09:01:08;5;4;
75946;PMS5003;64628;50.104;14.614;2023-09-19T09:03:25;4;4;
75946;PMS5003;64628;50.104;14.614;2023-09-19T09:05:56;4;4;
75946;PMS5003;64628;50.104;14.614;2023-09-19T09:10:44;4;3;
75946;PMS5003;64628;50.104;14.614;2023-09-19T09:13:08;2;2;
75946;PMS5003;64628;50.104;14.614;2023-09-19T09:15:39;4;4;
75946;PMS5003;64628;50.104;14.614;2023-09-19T09:22:53;2;2;
75946;PMS5003;64628;50.104;14.614;2023-09-19T09:25:17;3;3;
75946;PMS5003;64628;50.104;14.614;2023-09-19T09:27:44;4;3;
75946;PMS5003;64628;50.104;14.614;2023-09-19T09:30:09;5;4;
75946;PMS5003;64628;50.104;14.614;2023-09-19T09:32:35;4;3;
75946;PMS5003;64628;50.104;14.614;2023-09-19T09:35:07;2;2;
75946;PMS5003;64628;50.104;14.614;2023-09-19T09:37:28;6;4;
75946;PMS5003;64628;50.104;14.614;2023-09-19T09:44:43;5;4;
75946;PMS5003;64628;50.104;14.614;2023-09-19T09:47:09;6;4;
75946;PMS5003;64628;50.104;14.614;2023-09-19T09:49:40;4;3;
75946;PMS5003;64628;50.104;14.614;2023-09-19T09:54:37;3;3;
75946;PMS5003;64628;50.104;14.614;2023-09-19T09:56:58;6;4;
75946;PMS5003;64628;50.104;14.614;2023-09-19T09:59:18;3;3;
75946;PMS5003;64628;50.104;14.614;2023-09-19T10:01:50;3;3;
75946;PMS5003;64628;50.104;14.614;2023-09-19T10:04:09;5;4;
75946;PMS5003;64628;50.104;14.614;2023-09-19T10:09:07;3;3;
75946;PMS5003;64628;50.104;14.614;2023-09-19T10:11:27;3;3;
75946;PMS5003;64628;50.104;14.614;2023-09-19T10:14:03;5;5;
75946;PMS5003;64628;50.104;14.614;2023-09-19T10:16:21;9;5;
75946;PMS5003;64628;50.104;14.614;2023-09-19T10:21:20;3;2;
75946;PMS5003;64628;50.104;14.614;2023-09-19T10:23:37;6;5;
75946;PMS5003;64628;50.104;14.614;2023-09-19T10:26:01;5;4;
75946;PMS5003;64628;50.104;14.614;2023-09-19T10:28:27;5;4;
75946;PMS5003;64628;50.104;14.614;2023-09-19T10:30:53;4;4;
75946;PMS5003;64628;50.104;14.614;2023-09-19T10:35:45;5;4;
75946;PMS5003;64628;50.104;14.614;2023-09-19T10:43:02;5;3;
75946;PMS5003;64628;50.104;14.614;2023-09-19T10:45:27;4;4;
75946;PMS5003;64628;50.104;14.614;2023-09-19T10:47:52;3;3;
75946;PMS5003;64628;50.104;14.614;2023-09-19T10:50:19;5;4;
75946;PMS5003;64628;50.104;14.614;2023-09-19T10:52:44;5;4;
75946;PMS5003;64628;50.104;14.614;2023-09-19T10:55:10;4;4;
75946;PMS5003;64628;50.104;14.614;2023-09-19T10:57:35;3;3;
75946;PMS5003;64628;50.104;14.614;2023-09-19T11:00:02;3;3;
75946;PMS5003;64628;50.104;14.614;2023-09-19T11:02:27;5;5;
75946;PMS5003;64628;50.104;14.614;2023-09-19T11:04:53;3;2;
75946;PMS5003;64628;50.104;14.614;2023-09-19T11:07:19;5;3;
75946;PMS5003;64628;50.104;14.614;2023-09-19T11:09:45;3;3;
75946;PMS5003;64628;50.104;14.614;2023-09-19T11:12:10;5;3;
75946;PMS5003;64628;50.104;14.614;2023-09-19T11:14:37;2;2;
75946;PMS5003;64628;50.104;14.614;2023-09-19T11:21:53;3;3;
75946;PMS5003;64628;50.104;14.614;2023-09-19T11:26:44;3;3;
75946;PMS5003;64628;50.104;14.614;2023-09-19T11:38:58;4;4;
75946;PMS5003;64628;50.104;14.614;2023-09-19T11:43:44;2;2;
75946;PMS5003;64628;50.104;14.614;2023-09-19T11:46:10;3;3;
75946;PMS5003;64628;50.104;14.614;2023-09-19T11:48:35;1;1;
75946;PMS5003;64628;50.104;14.614;2023-09-19T11:51:01;4;3;
75946;PMS5003;64628;50.104;14.614;2023-09-19T11:53:31;4;4;
75946;PMS5003;64628;50.104;14.614;2023-09-19T11:55:53;2;2;
75946;PMS5003;64628;50.104;14.614;2023-09-19T11:58:18;4;3;
75946;PMS5003;64628;50.104;14.614;2023-09-19T12:00:44;2;2;
75946;PMS5003;64628;50.104;14.614;2023-09-19T12:03:10;3;2;
75946;PMS5003;64628;50.104;14.614;2023-09-19T12:05:35;4;3;
75946;PMS5003;64628;50.104;14.614;2023-09-19T12:08:01;4;3;
75946;PMS5003;64628;50.104;14.614;2023-09-19T12:10:27;2;2;
75946;PMS5003;64628;50.104;14.614;2023-09-19T12:12:52;2;2;
75946;PMS5003;64628;50.104;14.614;2023-09-19T12:15:22;2;2;
75946;PMS5003;64628;50.104;14.614;2023-09-19T12:17:43;2;2;
75946;PMS5003;64628;50.104;14.614;2023-09-19T12:20:10;1;1;
75946;PMS5003;64628;50.104;14.614;2023-09-19T12:22:39;2;2;
75946;PMS5003;64628;50.104;14.614;2023-09-19T12:25:05;3;3;
75946;PMS5003;64628;50.104;14.614;2023-09-19T12:27:26;1;1;
75946;PMS5003;64628;50.104;14.614;2023-09-19T12:29:52;2;2;
75946;PMS5003;64628;50.104;14.614;2023-09-19T12:32:17;1;1;
75946;PMS5003;64628;50.104;14.614;2023-09-19T12:34:49;2;2;
75946;PMS5003;64628;50.104;14.614;2023-09-19T12:37:10;3;3;
75946;PMS5003;64628;50.104;14.614;2023-09-19T12:39:34;3;3;
75946;PMS5003;64628;50.104;14.614;2023-09-19T12:42:01;4;2;
75946;PMS5003;64628;50.104;14.614;2023-09-19T12:44:31;2;2;
75946;PMS5003;64628;50.104;14.614;2023-09-19T12:46:52;2;2;
75946;PMS5003;64628;50.104;14.614;2023-09-19T12:49:19;1;1;
75946;PMS5003;64628;50.104;14.614;2023-09-19T12:51:43;3;2;
75946;PMS5003;64628;50.104;14.614;2023-09-19T12:54:08;2;2;
75946;PMS5003;64628;50.104;14.614;2023-09-19T12:56:39;2;2;
75946;PMS5003;64628;50.104;14.614;2023-09-19T12:59:00;5;3;
75946;PMS5003;64628;50.104;14.614;2023-09-19T13:01:26;3;2;
75946;PMS5003;64628;50.104;14.614;2023-09-19T13:06:34;2;2;
75946;PMS5003;64628;50.104;14.614;2023-09-19T13:08:43;3;2;
75946;PMS5003;64628;50.104;14.614;2023-09-19T13:11:09;3;2;
75946;PMS5003;64628;50.104;14.614;2023-09-19T13:13:34;3;2;
75946;PMS5003;64628;50.104;14.614;2023-09-19T13:16:00;2;2;
75946;PMS5003;64628;50.104;14.614;2023-09-19T13:18:25;2;2;
75946;PMS5003;64628;50.104;14.614;2023-09-19T13:25:42;3;3;
75946;PMS5003;64628;50.104;14.614;2023-09-19T13:28:08;2;2;
75946;PMS5003;64628;50.104;14.614;2023-09-19T13:30:36;5;4;
75946;PMS5003;64628;50.104;14.614;2023-09-19T13:33:05;0;0;
75946;PMS5003;64628;50.104;14.614;2023-09-19T13:35:25;3;2;
75946;PMS5003;64628;50.104;14.614;2023-09-19T13:37:51;3;3;
75946;PMS5003;64628;50.104;14.614;2023-09-19T13:40:17;3;2;
75946;PMS5003;64628;50.104;14.614;2023-09-19T13:42:42;3;3;
75946;PMS5003;64628;50.104;14.614;2023-09-19T13:45:08;5;1;
75946;PMS5003;64628;50.104;14.614;2023-09-19T13:47:34;2;2;
75946;PMS5003;64628;50.104;14.614;2023-09-19T13:49:59;4;2;
75946;PMS5003;64628;50.104;14.614;2023-09-19T13:52:25;3;3;
75946;PMS5003;64628;50.104;14.614;2023-09-19T13:54:51;2;2;
75946;PMS5003;64628;50.104;14.614;2023-09-19T13:57:16;1;1;
75946;PMS5003;64628;50.104;14.614;2023-09-19T13:59:42;4;2;
75946;PMS5003;64628;50.104;14.614;2023-09-19T14:02:08;1;1;
75946;PMS5003;64628;50.104;14.614;2023-09-19T14:04:34;2;2;
75946;PMS5003;64628;50.104;14.614;2023-09-19T14:06:59;3;3;
75946;PMS5003;64628;50.104;14.614;2023-09-19T14:09:25;1;1;
75946;PMS5003;64628;50.104;14.614;2023-09-19T14:11:51;1;1;
75946;PMS5003;64628;50.104;14.614;2023-09-19T14:14:16;2;2;
75946;PMS5003;64628;50.104;14.614;2023-09-19T14:16:42;1;1;
75946;PMS5003;64628;50.104;14.614;2023-09-19T14:19:08;5;4;
75946;PMS5003;64628;50.104;14.614;2023-09-19T14:21:34;1;1;
75946;PMS5003;64628;50.104;14.614;2023-09-19T14:23:59;2;2;
75946;PMS5003;64628;50.104;14.614;2023-09-19T14:26:25;2;2;
75946;PMS5003;64628;50.104;14.614;2023-09-19T14:28:51;2;2;
75946;PMS5003;64628;50.104;14.614;2023-09-19T14:31:16;2;2;
75946;PMS5003;64628;50.104;14.614;2023-09-19T14:33:42;2;2;
75946;PMS5003;64628;50.104;14.614;2023-09-19T14:36:09;2;2;
75946;PMS5003;64628;50.104;14.614;2023-09-19T14:38:34;3;3;
75946;PMS5003;64628;50.104;14.614;2023-09-19T14:40:59;3;3;
75946;PMS5003;64628;50.104;14.614;2023-09-19T14:43:25;2;2;
75946;PMS5003;64628;50.104;14.614;2023-09-19T14:45:50;1;1;
75946;PMS5003;64628;50.104;14.614;2023-09-19T14:48:16;2;2;
75946;PMS5003;64628;50.104;14.614;2023-09-19T14:50:42;3;2;
75946;PMS5003;64628;50.104;14.614;2023-09-19T14:53:08;2;2;
75946;PMS5003;64628;50.104;14.614;2023-09-19T14:55:36;4;2;
75946;PMS5003;64628;50.104;14.614;2023-09-19T14:57:59;2;2;
75946;PMS5003;64628;50.104;14.614;2023-09-19T15:00:25;4;4;
75946;PMS5003;64628;50.104;14.614;2023-09-19T15:02:51;3;3;
75946;PMS5003;64628;50.104;14.614;2023-09-19T15:05:16;3;2;
75946;PMS5003;64628;50.104;14.614;2023-09-19T15:07:42;3;3;
75946;PMS5003;64628;50.104;14.614;2023-09-19T15:10:08;2;2;
75946;PMS5003;64628;50.104;14.614;2023-09-19T15:12:35;3;2;
75946;PMS5003;64628;50.104;14.614;2023-09-19T15:15:00;3;3;
75946;PMS5003;64628;50.104;14.614;2023-09-19T15:17:25;6;3;
75946;PMS5003;64628;50.104;14.614;2023-09-19T15:19:51;2;2;
75946;PMS5003;64628;50.104;14.614;2023-09-19T15:22:17;3;3;
75946;PMS5003;64628;50.104;14.614;2023-09-19T15:24:43;5;3;
75946;PMS5003;64628;50.104;14.614;2023-09-19T15:27:08;3;2;
75946;PMS5003;64628;50.104;14.614;2023-09-19T15:29:34;2;2;
75946;PMS5003;64628;50.104;14.614;2023-09-19T15:32:00;4;4;
75946;PMS5003;64628;50.104;14.614;2023-09-19T15:34:26;4;2;
75946;PMS5003;64628;50.104;14.614;2023-09-19T15:36:51;3;2;
75946;PMS5003;64628;50.104;14.614;2023-09-19T15:39:17;3;3;
75946;PMS5003;64628;50.104;14.614;2023-09-19T15:41:45;3;3;
75946;PMS5003;64628;50.104;14.614;2023-09-19T15:44:11;4;3;
75946;PMS5003;64628;50.104;14.614;2023-09-19T15:46:35;2;1;
75946;PMS5003;64628;50.104;14.614;2023-09-19T15:49:01;2;2;
75946;PMS5003;64628;50.104;14.614;2023-09-19T15:51:26;4;3;
75946;PMS5003;64628;50.104;14.614;2023-09-19T15:53:52;4;3;
75946;PMS5003;64628;50.104;14.614;2023-09-19T15:56:18;3;3;
75946;PMS5003;64628;50.104;14.614;2023-09-19T15:58:44;5;3;
75946;PMS5003;64628;50.104;14.614;2023-09-19T16:01:09;1;1;
75946;PMS5003;64628;50.104;14.614;2023-09-19T16:03:35;3;3;
75946;PMS5003;64628;50.104;14.614;2023-09-19T16:06:01;3;3;
75946;PMS5003;64628;50.104;14.614;2023-09-19T16:08:27;4;3;
75946;PMS5003;64628;50.104;14.614;2023-09-19T16:10:52;5;4;
75946;PMS5003;64628;50.104;14.614;2023-09-19T16:13:18;3;2;
75946;PMS5003;64628;50.104;14.614;2023-09-19T16:15:44;3;3;
75946;PMS5003;64628;50.104;14.614;2023-09-19T16:18:10;4;4;
75946;PMS5003;64628;50.104;14.614;2023-09-19T16:20:36;3;3;
75946;PMS5003;64628;50.104;14.614;2023-09-19T16:23:01;3;3;
75946;PMS5003;64628;50.104;14.614;2023-09-19T16:25:27;0;0;
75946;PMS5003;64628;50.104;14.614;2023-09-19T16:27:53;3;3;
75946;PMS5003;64628;50.104;14.614;2023-09-19T16:30:19;4;2;
75946;PMS5003;64628;50.104;14.614;2023-09-19T16:32:45;2;2;
75946;PMS5003;64628;50.104;14.614;2023-09-19T16:35:10;3;3;
75946;PMS5003;64628;50.104;14.614;2023-09-19T16:37:37;4;3;
75946;PMS5003;64628;50.104;14.614;2023-09-19T16:40:02;6;3;
75946;PMS5003;64628;50.104;14.614;2023-09-19T16:42:28;10;10;
75946;PMS5003;64628;50.104;14.614;2023-09-19T16:44:54;8;6;
75946;PMS5003;64628;50.104;14.614;2023-09-19T16:47:19;4;4;
75946;PMS5003;64628;50.104;14.614;2023-09-19T16:49:45;3;3;
75946;PMS5003;64628;50.104;14.614;2023-09-19T16:52:11;3;3;
75946;PMS5003;64628;50.104;14.614;2023-09-19T16:54:37;3;2;
75946;PMS5003;64628;50.104;14.614;2023-09-19T16:57:03;2;2;
75946;PMS5003;64628;50.104;14.614;2023-09-19T16:59:29;5;5;
75946;PMS5003;64628;50.104;14.614;2023-09-19T17:01:54;4;3;
75946;PMS5003;64628;50.104;14.614;2023-09-19T17:04:21;5;4;
75946;PMS5003;64628;50.104;14.614;2023-09-19T17:06:46;7;6;
75946;PMS5003;64628;50.104;14.614;2023-09-19T17:09:12;7;4;
75946;PMS5003;64628;50.104;14.614;2023-09-19T17:11:38;3;3;
75946;PMS5003;64628;50.104;14.614;2023-09-19T17:14:04;4;3;
75946;PMS5003;64628;50.104;14.614;2023-09-19T17:16:30;4;3;